sensor_id;sensor_type;location;lat;lon;timestamp;P1;durP1;ratioP1;P2;durP2;ratioP2
66256;SDS011;53049;43.446;3.698;2023-10-09T00:01:49;13.05;;;8.85;;
66256;SDS011;53049;43.446;3.698;2023-10-09T00:04:16;14.95;;;8.25;;
66256;SDS011;53049;43.446;3.698;2023-10-09T00:06:42;12.82;;;8.85;;
66256;SDS011;53049;43.446;3.698;2023-10-09T00:09:08;14.13;;;8.45;;
66256;SDS011;53049;43.446;3.698;2023-10-09T00:11:58;13.98;;;8.40;;
66256;SDS011;53049;43.446;3.698;2023-10-09T00:14:25;12.13;;;8.05;;
66256;SDS011;53049;43.446;3.698;2023-10-09T00:16:52;10.82;;;8.20;;
66256;SDS011;53049;43.446;3.698;2023-10-09T00:19:47;12.18;;;8.00;;
66256;SDS011;53049;43.446;3.698;2023-10-09T00:22:13;11.05;;;7.97;;
66256;SDS011;53049;43.446;3.698;2023-10-09T00:24:51;11.38;;;7.97;;
66256;SDS011;53049;43.446;3.698;2023-10-09T00:27:35;13.45;;;8.32;;
66256;SDS011;53049;43.446;3.698;2023-10-09T00:30:02;12.88;;;8.20;;
66256;SDS011;53049;43.446;3.698;2023-10-09T00:32:31;12.07;;;7.90;;
66256;SDS011;53049;43.446;3.698;2023-10-09T00:34:58;12.48;;;7.97;;
66256;SDS011;53049;43.446;3.698;2023-10-09T00:37:43;10.55;;;8.18;;
66256;SDS011;53049;43.446;3.698;2023-10-09T00:40:10;11.43;;;7.68;;
66256;SDS011;53049;43.446;3.698;2023-10-09T00:42:53;10.73;;;7.40;;
66256;SDS011;53049;43.446;3.698;2023-10-09T00:45:20;12.77;;;7.70;;
66256;SDS011;53049;43.446;3.698;2023-10-09T00:47:53;11.88;;;7.20;;
66256;SDS011;53049;43.446;3.698;2023-10-09T00:50:24;13.68;;;7.32;;
66256;SDS011;53049;43.446;3.698;2023-10-09T00:53:00;13.05;;;7.90;;
66256;SDS011;53049;43.446;3.698;2023-10-09T00:58:07;10.57;;;7.78;;
66256;SDS011;53049;43.446;3.698;2023-10-09T01:00:41;10.82;;;7.65;;
66256;SDS011;53049;43.446;3.698;2023-10-09T01:03:11;11.80;;;7.65;;
66256;SDS011;53049;43.446;3.698;2023-10-09T01:08:34;11.10;;;7.50;;
66256;SDS011;53049;43.446;3.698;2023-10-09T01:13:48;10.60;;;7.05;;
66256;SDS011;53049;43.446;3.698;2023-10-09T01:16:21;11.82;;;7.68;;
66256;SDS011;53049;43.446;3.698;2023-10-09T01:18:49;11.75;;;7.40;;
66256;SDS011;53049;43.446;3.698;2023-10-09T01:21:17;10.85;;;7.28;;
66256;SDS011;53049;43.446;3.698;2023-10-09T01:23:46;10.75;;;7.22;;
66256;SDS011;53049;43.446;3.698;2023-10-09T01:26:27;14.02;;;7.55;;
66256;SDS011;53049;43.446;3.698;2023-10-09T01:29:04;11.95;;;7.32;;
66256;SDS011;53049;43.446;3.698;2023-10-09T01:31:35;10.27;;;7.35;;
66256;SDS011;53049;43.446;3.698;2023-10-09T01:34:03;11.25;;;6.47;;
66256;SDS011;53049;43.446;3.698;2023-10-09T01:36:35;11.13;;;6.85;;
66256;SDS011;53049;43.446;3.698;2023-10-09T01:39:04;10.80;;;6.47;;
66256;SDS011;53049;43.446;3.698;2023-10-09T01:41:50;10.07;;;6.70;;
66256;SDS011;53049;43.446;3.698;2023-10-09T01:44:31;9.05;;;6.40;;
66256;SDS011;53049;43.446;3.698;2023-10-09T01:47:01;10.48;;;6.80;;
66256;SDS011;53049;43.446;3.698;2023-10-09T01:49:32;13.27;;;6.75;;
66256;SDS011;53049;43.446;3.698;2023-10-09T01:52:06;8.90;;;6.03;;
66256;SDS011;53049;43.446;3.698;2023-10-09T01:54:37;10.98;;;6.43;;
66256;SDS011;53049;43.446;3.698;2023-10-09T01:57:06;9.20;;;6.15;;
66256;SDS011;53049;43.446;3.698;2023-10-09T01:59:42;10.38;;;6.13;;
66256;SDS011;53049;43.446;3.698;2023-10-09T02:02:19;9.30;;;6.15;;
66256;SDS011;53049;43.446;3.698;2023-10-09T02:04:54;10.18;;;6.20;;
66256;SDS011;53049;43.446;3.698;2023-10-09T02:07:31;8.55;;;5.78;;
66256;SDS011;53049;43.446;3.698;2023-10-09T02:10:06;8.95;;;6.30;;
66256;SDS011;53049;43.446;3.698;2023-10-09T02:12:48;10.82;;;6.35;;
66256;SDS011;53049;43.446;3.698;2023-10-09T02:15:23;7.67;;;5.30;;
66256;SDS011;53049;43.446;3.698;2023-10-09T02:18:17;8.98;;;6.10;;
66256;SDS011;53049;43.446;3.698;2023-10-09T02:20:52;9.60;;;5.95;;
66256;SDS011;53049;43.446;3.698;2023-10-09T02:23:30;9.10;;;6.07;;
66256;SDS011;53049;43.446;3.698;2023-10-09T02:26:09;8.73;;;5.68;;
66256;SDS011;53049;43.446;3.698;2023-10-09T02:28:42;9.70;;;6.25;;
66256;SDS011;53049;43.446;3.698;2023-10-09T02:31:17;9.50;;;6.30;;
66256;SDS011;53049;43.446;3.698;2023-10-09T02:33:46;9.98;;;5.82;;
66256;SDS011;53049;43.446;3.698;2023-10-09T02:36:16;10.15;;;6.50;;
66256;SDS011;53049;43.446;3.698;2023-10-09T02:38:42;9.10;;;6.03;;
66256;SDS011;53049;43.446;3.698;2023-10-09T02:41:08;9.00;;;5.90;;
66256;SDS011;53049;43.446;3.698;2023-10-09T02:43:37;9.88;;;6.05;;
66256;SDS011;53049;43.446;3.698;2023-10-09T02:46:16;8.57;;;5.70;;
66256;SDS011;53049;43.446;3.698;2023-10-09T02:48:46;9.55;;;6.13;;
66256;SDS011;53049;43.446;3.698;2023-10-09T02:51:16;11.88;;;6.22;;
66256;SDS011;53049;43.446;3.698;2023-10-09T02:53:55;12.18;;;5.75;;
66256;SDS011;53049;43.446;3.698;2023-10-09T02:56:23;9.55;;;6.00;;
66256;SDS011;53049;43.446;3.698;2023-10-09T02:58:52;10.10;;;5.85;;
66256;SDS011;53049;43.446;3.698;2023-10-09T03:01:18;11.23;;;5.88;;
66256;SDS011;53049;43.446;3.698;2023-10-09T03:03:44;9.25;;;6.20;;
66256;SDS011;53049;43.446;3.698;2023-10-09T03:06:14;10.57;;;6.28;;
66256;SDS011;53049;43.446;3.698;2023-10-09T03:08:44;10.27;;;6.55;;
66256;SDS011;53049;43.446;3.698;2023-10-09T03:11:12;10.10;;;5.72;;
66256;SDS011;53049;43.446;3.698;2023-10-09T03:13:44;10.05;;;5.65;;
66256;SDS011;53049;43.446;3.698;2023-10-09T03:16:13;10.30;;;6.20;;
66256;SDS011;53049;43.446;3.698;2023-10-09T03:18:47;10.90;;;5.70;;
66256;SDS011;53049;43.446;3.698;2023-10-09T03:21:15;9.05;;;5.72;;
66256;SDS011;53049;43.446;3.698;2023-10-09T03:23:42;9.55;;;5.57;;
66256;SDS011;53049;43.446;3.698;2023-10-09T03:26:09;9.23;;;6.45;;
66256;SDS011;53049;43.446;3.698;2023-10-09T03:28:36;9.60;;;6.10;;
66256;SDS011;53049;43.446;3.698;2023-10-09T03:31:01;9.25;;;6.05;;
66256;SDS011;53049;43.446;3.698;2023-10-09T03:33:28;9.20;;;6.25;;
66256;SDS011;53049;43.446;3.698;2023-10-09T03:35:58;9.48;;;6.13;;
66256;SDS011;53049;43.446;3.698;2023-10-09T03:38:27;9.57;;;6.18;;
66256;SDS011;53049;43.446;3.698;2023-10-09T03:41:02;9.02;;;6.22;;
66256;SDS011;53049;43.446;3.698;2023-10-09T03:43:34;11.45;;;5.93;;
66256;SDS011;53049;43.446;3.698;2023-10-09T03:46:10;10.10;;;6.47;;
66256;SDS011;53049;43.446;3.698;2023-10-09T03:48:46;8.35;;;5.80;;
66256;SDS011;53049;43.446;3.698;2023-10-09T03:51:12;9.88;;;5.80;;
66256;SDS011;53049;43.446;3.698;2023-10-09T03:53:46;9.82;;;6.38;;
66256;SDS011;53049;43.446;3.698;2023-10-09T03:56:12;10.38;;;6.05;;
66256;SDS011;53049;43.446;3.698;2023-10-09T03:58:47;10.20;;;6.28;;
66256;SDS011;53049;43.446;3.698;2023-10-09T04:01:23;9.32;;;6.30;;
66256;SDS011;53049;43.446;3.698;2023-10-09T04:03:51;10.15;;;6.40;;
66256;SDS011;53049;43.446;3.698;2023-10-09T04:06:23;12.65;;;6.38;;
66256;SDS011;53049;43.446;3.698;2023-10-09T04:08:53;9.43;;;6.35;;
66256;SDS011;53049;43.446;3.698;2023-10-09T04:11:19;10.18;;;6.10;;
66256;SDS011;53049;43.446;3.698;2023-10-09T04:13:48;10.38;;;6.35;;
66256;SDS011;53049;43.446;3.698;2023-10-09T04:16:25;11.77;;;6.68;;
66256;SDS011;53049;43.446;3.698;2023-10-09T04:19:00;9.35;;;5.90;;
66256;SDS011;53049;43.446;3.698;2023-10-09T04:24:05;9.52;;;6.50;;
66256;SDS011;53049;43.446;3.698;2023-10-09T04:26:41;12.20;;;6.25;;
66256;SDS011;53049;43.446;3.698;2023-10-09T04:29:13;10.40;;;6.32;;
66256;SDS011;53049;43.446;3.698;2023-10-09T04:34:22;9.43;;;6.15;;
66256;SDS011;53049;43.446;3.698;2023-10-09T04:36:49;9.90;;;6.28;;
66256;SDS011;53049;43.446;3.698;2023-10-09T04:39:16;9.60;;;5.60;;
66256;SDS011;53049;43.446;3.698;2023-10-09T04:42:01;8.88;;;6.22;;
66256;SDS011;53049;43.446;3.698;2023-10-09T04:44:46;10.30;;;6.05;;
66256;SDS011;53049;43.446;3.698;2023-10-09T04:47:34;10.38;;;5.97;;
66256;SDS011;53049;43.446;3.698;2023-10-09T04:53:00;10.75;;;6.40;;
66256;SDS011;53049;43.446;3.698;2023-10-09T04:55:46;10.30;;;6.03;;
66256;SDS011;53049;43.446;3.698;2023-10-09T04:58:25;9.40;;;5.75;;
66256;SDS011;53049;43.446;3.698;2023-10-09T05:00:54;9.63;;;5.93;;
66256;SDS011;53049;43.446;3.698;2023-10-09T05:03:22;15.68;;;7.18;;
66256;SDS011;53049;43.446;3.698;2023-10-09T05:06:08;10.25;;;6.93;;
66256;SDS011;53049;43.446;3.698;2023-10-09T05:08:52;11.57;;;6.93;;
66256;SDS011;53049;43.446;3.698;2023-10-09T05:11:22;11.40;;;6.70;;
66256;SDS011;53049;43.446;3.698;2023-10-09T05:14:18;9.25;;;6.25;;
66256;SDS011;53049;43.446;3.698;2023-10-09T05:17:03;12.75;;;6.63;;
66256;SDS011;53049;43.446;3.698;2023-10-09T05:19:34;12.68;;;6.45;;
66256;SDS011;53049;43.446;3.698;2023-10-09T05:22:18;13.40;;;6.20;;
66256;SDS011;53049;43.446;3.698;2023-10-09T05:25:16;12.07;;;6.72;;
66256;SDS011;53049;43.446;3.698;2023-10-09T05:28:02;9.27;;;6.37;;
66256;SDS011;53049;43.446;3.698;2023-10-09T05:30:47;11.75;;;6.88;;
66256;SDS011;53049;43.446;3.698;2023-10-09T05:33:20;15.10;;;7.03;;
66256;SDS011;53049;43.446;3.698;2023-10-09T05:35:58;11.05;;;7.15;;
66256;SDS011;53049;43.446;3.698;2023-10-09T05:38:44;12.43;;;6.60;;
66256;SDS011;53049;43.446;3.698;2023-10-09T05:41:13;11.68;;;6.72;;
66256;SDS011;53049;43.446;3.698;2023-10-09T05:44:18;14.15;;;7.97;;
66256;SDS011;53049;43.446;3.698;2023-10-09T05:47:02;12.60;;;6.53;;
66256;SDS011;53049;43.446;3.698;2023-10-09T05:49:48;12.90;;;6.85;;
66256;SDS011;53049;43.446;3.698;2023-10-09T05:52:22;11.95;;;7.25;;
66256;SDS011;53049;43.446;3.698;2023-10-09T05:55:07;12.50;;;6.45;;
66256;SDS011;53049;43.446;3.698;2023-10-09T05:57:52;11.05;;;6.80;;
66256;SDS011;53049;43.446;3.698;2023-10-09T06:00:25;9.40;;;6.35;;
66256;SDS011;53049;43.446;3.698;2023-10-09T06:03:10;14.15;;;6.90;;
66256;SDS011;53049;43.446;3.698;2023-10-09T06:08:27;11.25;;;6.75;;
66256;SDS011;53049;43.446;3.698;2023-10-09T06:11:07;10.77;;;6.65;;
66256;SDS011;53049;43.446;3.698;2023-10-09T06:13:55;11.45;;;7.38;;
66256;SDS011;53049;43.446;3.698;2023-10-09T06:16:32;10.20;;;6.43;;
66256;SDS011;53049;43.446;3.698;2023-10-09T06:19:10;12.02;;;6.35;;
66256;SDS011;53049;43.446;3.698;2023-10-09T06:21:37;13.95;;;7.47;;
66256;SDS011;53049;43.446;3.698;2023-10-09T06:24:22;13.30;;;7.45;;
66256;SDS011;53049;43.446;3.698;2023-10-09T06:26:49;14.85;;;7.72;;
66256;SDS011;53049;43.446;3.698;2023-10-09T06:29:18;13.75;;;8.63;;
66256;SDS011;53049;43.446;3.698;2023-10-09T06:32:05;15.63;;;7.82;;
66256;SDS011;53049;43.446;3.698;2023-10-09T06:34:41;17.25;;;7.80;;
66256;SDS011;53049;43.446;3.698;2023-10-09T06:37:10;13.93;;;7.65;;
66256;SDS011;53049;43.446;3.698;2023-10-09T06:39:51;14.07;;;7.40;;
66256;SDS011;53049;43.446;3.698;2023-10-09T06:42:30;13.43;;;7.72;;
66256;SDS011;53049;43.446;3.698;2023-10-09T06:45:05;14.65;;;7.47;;
66256;SDS011;53049;43.446;3.698;2023-10-09T06:47:42;12.05;;;7.07;;
66256;SDS011;53049;43.446;3.698;2023-10-09T06:50:18;14.55;;;6.95;;
66256;SDS011;53049;43.446;3.698;2023-10-09T06:52:44;12.43;;;7.28;;
66256;SDS011;53049;43.446;3.698;2023-10-09T06:55:25;14.43;;;8.18;;
66256;SDS011;53049;43.446;3.698;2023-10-09T06:58:13;12.40;;;7.05;;
66256;SDS011;53049;43.446;3.698;2023-10-09T07:00:50;14.70;;;7.70;;
66256;SDS011;53049;43.446;3.698;2023-10-09T07:03:27;19.50;;;7.70;;
66256;SDS011;53049;43.446;3.698;2023-10-09T07:06:05;14.98;;;7.32;;
66256;SDS011;53049;43.446;3.698;2023-10-09T07:08:35;16.10;;;7.72;;
66256;SDS011;53049;43.446;3.698;2023-10-09T07:11:09;17.80;;;7.22;;
66256;SDS011;53049;43.446;3.698;2023-10-09T07:14:11;17.95;;;8.45;;
66256;SDS011;53049;43.446;3.698;2023-10-09T07:19:26;17.90;;;7.43;;
66256;SDS011;53049;43.446;3.698;2023-10-09T07:22:20;12.30;;;7.50;;
66256;SDS011;53049;43.446;3.698;2023-10-09T07:24:47;16.73;;;8.00;;
66256;SDS011;53049;43.446;3.698;2023-10-09T07:27:40;14.63;;;7.88;;
66256;SDS011;53049;43.446;3.698;2023-10-09T07:30:19;17.40;;;7.60;;
66256;SDS011;53049;43.446;3.698;2023-10-09T07:33:04;16.70;;;7.90;;
66256;SDS011;53049;43.446;3.698;2023-10-09T07:35:37;15.00;;;7.93;;
66256;SDS011;53049;43.446;3.698;2023-10-09T07:38:10;17.92;;;7.32;;
66256;SDS011;53049;43.446;3.698;2023-10-09T07:40:50;17.10;;;8.30;;
66256;SDS011;53049;43.446;3.698;2023-10-09T07:43:32;12.10;;;7.13;;
66256;SDS011;53049;43.446;3.698;2023-10-09T07:46:26;13.45;;;6.97;;
66256;SDS011;53049;43.446;3.698;2023-10-09T07:48:55;12.65;;;6.90;;
66256;SDS011;53049;43.446;3.698;2023-10-09T07:51:22;14.98;;;7.65;;
66256;SDS011;53049;43.446;3.698;2023-10-09T07:53:55;15.10;;;7.15;;
66256;SDS011;53049;43.446;3.698;2023-10-09T07:56:24;13.38;;;7.07;;
66256;SDS011;53049;43.446;3.698;2023-10-09T07:58:55;15.38;;;7.57;;
66256;SDS011;53049;43.446;3.698;2023-10-09T08:01:25;15.80;;;7.80;;
66256;SDS011;53049;43.446;3.698;2023-10-09T08:04:01;18.30;;;6.72;;
66256;SDS011;53049;43.446;3.698;2023-10-09T08:06:30;14.82;;;7.35;;
66256;SDS011;53049;43.446;3.698;2023-10-09T08:09:08;12.48;;;6.80;;
66256;SDS011;53049;43.446;3.698;2023-10-09T08:11:37;13.65;;;6.72;;
66256;SDS011;53049;43.446;3.698;2023-10-09T08:16:58;14.57;;;6.57;;
66256;SDS011;53049;43.446;3.698;2023-10-09T08:19:39;13.10;;;6.82;;
66256;SDS011;53049;43.446;3.698;2023-10-09T08:22:21;11.45;;;7.00;;
66256;SDS011;53049;43.446;3.698;2023-10-09T08:25:35;13.13;;;6.65;;
66256;SDS011;53049;43.446;3.698;2023-10-09T08:29:12;14.65;;;6.10;;
66256;SDS011;53049;43.446;3.698;2023-10-09T08:31:44;13.43;;;6.38;;
66256;SDS011;53049;43.446;3.698;2023-10-09T08:34:14;18.85;;;8.02;;
66256;SDS011;53049;43.446;3.698;2023-10-09T08:36:50;12.90;;;7.15;;
66256;SDS011;53049;43.446;3.698;2023-10-09T08:39:18;14.77;;;6.25;;
66256;SDS011;53049;43.446;3.698;2023-10-09T08:41:53;11.85;;;6.75;;
66256;SDS011;53049;43.446;3.698;2023-10-09T08:44:33;13.45;;;6.85;;
66256;SDS011;53049;43.446;3.698;2023-10-09T08:46:59;13.65;;;6.95;;
66256;SDS011;53049;43.446;3.698;2023-10-09T08:49:25;13.15;;;6.55;;
66256;SDS011;53049;43.446;3.698;2023-10-09T08:51:52;12.75;;;6.38;;
66256;SDS011;53049;43.446;3.698;2023-10-09T08:54:18;11.93;;;6.55;;
66256;SDS011;53049;43.446;3.698;2023-10-09T08:56:45;13.05;;;6.35;;
66256;SDS011;53049;43.446;3.698;2023-10-09T08:59:19;15.30;;;6.30;;
66256;SDS011;53049;43.446;3.698;2023-10-09T09:01:49;15.88;;;6.57;;
66256;SDS011;53049;43.446;3.698;2023-10-09T09:04:34;14.10;;;6.13;;
66256;SDS011;53049;43.446;3.698;2023-10-09T09:07:03;15.10;;;6.97;;
66256;SDS011;53049;43.446;3.698;2023-10-09T09:09:56;13.38;;;6.70;;
66256;SDS011;53049;43.446;3.698;2023-10-09T09:12:42;14.55;;;6.30;;
66256;SDS011;53049;43.446;3.698;2023-10-09T09:15:15;14.10;;;7.28;;
66256;SDS011;53049;43.446;3.698;2023-10-09T09:17:45;12.75;;;6.35;;
66256;SDS011;53049;43.446;3.698;2023-10-09T09:20:23;13.48;;;6.80;;
66256;SDS011;53049;43.446;3.698;2023-10-09T09:22:55;12.85;;;6.65;;
66256;SDS011;53049;43.446;3.698;2023-10-09T09:25:22;19.17;;;7.85;;
66256;SDS011;53049;43.446;3.698;2023-10-09T09:27:49;12.20;;;6.53;;
66256;SDS011;53049;43.446;3.698;2023-10-09T09:30:26;18.17;;;6.50;;
66256;SDS011;53049;43.446;3.698;2023-10-09T09:33:06;12.50;;;6.97;;
66256;SDS011;53049;43.446;3.698;2023-10-09T09:38:25;12.68;;;6.95;;
66256;SDS011;53049;43.446;3.698;2023-10-09T09:40:54;12.50;;;6.65;;
66256;SDS011;53049;43.446;3.698;2023-10-09T09:43:27;11.85;;;6.47;;
66256;SDS011;53049;43.446;3.698;2023-10-09T09:45:55;16.50;;;7.10;;
66256;SDS011;53049;43.446;3.698;2023-10-09T09:48:21;13.95;;;7.50;;
66256;SDS011;53049;43.446;3.698;2023-10-09T09:50:48;14.30;;;7.15;;
66256;SDS011;53049;43.446;3.698;2023-10-09T09:53:19;12.70;;;6.55;;
66256;SDS011;53049;43.446;3.698;2023-10-09T09:55:52;12.93;;;7.35;;
66256;SDS011;53049;43.446;3.698;2023-10-09T09:58:22;16.98;;;7.93;;
66256;SDS011;53049;43.446;3.698;2023-10-09T10:00:53;14.52;;;7.25;;
66256;SDS011;53049;43.446;3.698;2023-10-09T10:03:24;14.63;;;7.88;;
66256;SDS011;53049;43.446;3.698;2023-10-09T10:06:05;15.18;;;8.38;;
66256;SDS011;53049;43.446;3.698;2023-10-09T10:08:51;14.30;;;8.52;;
66256;SDS011;53049;43.446;3.698;2023-10-09T10:14:09;14.25;;;8.88;;
66256;SDS011;53049;43.446;3.698;2023-10-09T10:16:59;15.57;;;8.55;;
66256;SDS011;53049;43.446;3.698;2023-10-09T10:22:25;17.20;;;8.18;;
66256;SDS011;53049;43.446;3.698;2023-10-09T10:25:02;15.75;;;8.90;;
66256;SDS011;53049;43.446;3.698;2023-10-09T10:35:21;11.35;;;8.05;;
66256;SDS011;53049;43.446;3.698;2023-10-09T10:43:37;13.13;;;7.50;;
66256;SDS011;53049;43.446;3.698;2023-10-09T10:46:17;12.85;;;8.30;;
66256;SDS011;53049;43.446;3.698;2023-10-09T10:48:52;14.57;;;7.72;;
66256;SDS011;53049;43.446;3.698;2023-10-09T10:51:27;13.63;;;8.18;;
66256;SDS011;53049;43.446;3.698;2023-10-09T10:54:03;12.75;;;7.95;;
66256;SDS011;53049;43.446;3.698;2023-10-09T10:56:53;15.85;;;7.85;;
66256;SDS011;53049;43.446;3.698;2023-10-09T10:59:22;11.82;;;7.63;;
66256;SDS011;53049;43.446;3.698;2023-10-09T11:01:49;10.98;;;7.60;;
66256;SDS011;53049;43.446;3.698;2023-10-09T11:04:22;12.90;;;7.80;;
66256;SDS011;53049;43.446;3.698;2023-10-09T11:07:12;12.20;;;7.95;;
66256;SDS011;53049;43.446;3.698;2023-10-09T11:09:46;9.35;;;6.68;;
66256;SDS011;53049;43.446;3.698;2023-10-09T11:12:30;10.23;;;6.78;;
66256;SDS011;53049;43.446;3.698;2023-10-09T11:15:10;11.40;;;6.78;;
66256;SDS011;53049;43.446;3.698;2023-10-09T11:17:58;11.90;;;6.75;;
66256;SDS011;53049;43.446;3.698;2023-10-09T11:20:30;10.80;;;6.53;;
66256;SDS011;53049;43.446;3.698;2023-10-09T11:23:18;9.13;;;6.70;;
66256;SDS011;53049;43.446;3.698;2023-10-09T11:25:55;9.82;;;6.60;;
66256;SDS011;53049;43.446;3.698;2023-10-09T11:28:41;10.85;;;6.88;;
66256;SDS011;53049;43.446;3.698;2023-10-09T11:31:22;10.68;;;6.70;;
66256;SDS011;53049;43.446;3.698;2023-10-09T11:33:49;9.13;;;6.55;;
66256;SDS011;53049;43.446;3.698;2023-10-09T11:36:19;9.60;;;6.45;;
66256;SDS011;53049;43.446;3.698;2023-10-09T11:38:59;10.70;;;6.45;;
66256;SDS011;53049;43.446;3.698;2023-10-09T11:41:47;12.02;;;6.53;;
66256;SDS011;53049;43.446;3.698;2023-10-09T11:44:33;9.90;;;6.82;;
66256;SDS011;53049;43.446;3.698;2023-10-09T11:47:09;8.63;;;5.88;;
66256;SDS011;53049;43.446;3.698;2023-10-09T11:49:55;9.77;;;6.20;;
66256;SDS011;53049;43.446;3.698;2023-10-09T11:52:36;7.40;;;5.38;;
66256;SDS011;53049;43.446;3.698;2023-10-09T11:55:33;9.32;;;6.50;;
66256;SDS011;53049;43.446;3.698;2023-10-09T11:57:59;12.70;;;6.78;;
66256;SDS011;53049;43.446;3.698;2023-10-09T12:00:27;9.88;;;6.60;;
66256;SDS011;53049;43.446;3.698;2023-10-09T12:02:52;10.32;;;7.43;;
66256;SDS011;53049;43.446;3.698;2023-10-09T12:05:18;9.38;;;6.25;;
66256;SDS011;53049;43.446;3.698;2023-10-09T12:07:47;9.20;;;6.10;;
66256;SDS011;53049;43.446;3.698;2023-10-09T12:10:21;10.80;;;6.40;;
66256;SDS011;53049;43.446;3.698;2023-10-09T12:12:53;10.00;;;6.70;;
66256;SDS011;53049;43.446;3.698;2023-10-09T12:15:23;10.18;;;6.35;;
66256;SDS011;53049;43.446;3.698;2023-10-09T12:17:49;8.85;;;6.03;;
66256;SDS011;53049;43.446;3.698;2023-10-09T12:20:15;13.35;;;6.57;;
66256;SDS011;53049;43.446;3.698;2023-10-09T12:23:00;11.88;;;7.30;;
66256;SDS011;53049;43.446;3.698;2023-10-09T12:25:30;15.60;;;7.72;;
66256;SDS011;53049;43.446;3.698;2023-10-09T12:27:58;13.10;;;7.00;;
66256;SDS011;53049;43.446;3.698;2023-10-09T12:30:26;15.75;;;7.50;;
66256;SDS011;53049;43.446;3.698;2023-10-09T12:32:56;17.17;;;7.53;;
66256;SDS011;53049;43.446;3.698;2023-10-09T12:35:25;12.77;;;7.45;;
66256;SDS011;53049;43.446;3.698;2023-10-09T12:37:52;12.73;;;7.93;;
66256;SDS011;53049;43.446;3.698;2023-10-09T12:40:23;12.23;;;7.30;;
66256;SDS011;53049;43.446;3.698;2023-10-09T12:42:52;12.32;;;7.03;;
66256;SDS011;53049;43.446;3.698;2023-10-09T12:45:21;12.02;;;7.38;;
66256;SDS011;53049;43.446;3.698;2023-10-09T12:47:57;16.13;;;7.60;;
66256;SDS011;53049;43.446;3.698;2023-10-09T12:50:34;16.75;;;8.15;;
66256;SDS011;53049;43.446;3.698;2023-10-09T12:53:00;18.75;;;6.95;;
66256;SDS011;53049;43.446;3.698;2023-10-09T12:55:35;12.63;;;6.90;;
66256;SDS011;53049;43.446;3.698;2023-10-09T12:58:09;16.15;;;6.20;;
66256;SDS011;53049;43.446;3.698;2023-10-09T13:00:39;13.80;;;7.57;;
66256;SDS011;53049;43.446;3.698;2023-10-09T13:03:12;12.90;;;7.13;;
66256;SDS011;53049;43.446;3.698;2023-10-09T13:05:47;14.38;;;7.05;;
66256;SDS011;53049;43.446;3.698;2023-10-09T13:08:23;13.27;;;7.03;;
66256;SDS011;53049;43.446;3.698;2023-10-09T13:10:56;17.42;;;6.45;;
66256;SDS011;53049;43.446;3.698;2023-10-09T13:13:29;11.18;;;6.57;;
66256;SDS011;53049;43.446;3.698;2023-10-09T13:16:19;10.75;;;6.30;;
66256;SDS011;53049;43.446;3.698;2023-10-09T13:18:52;13.60;;;7.00;;
66256;SDS011;53049;43.446;3.698;2023-10-09T13:21:24;11.13;;;6.15;;
66256;SDS011;53049;43.446;3.698;2023-10-09T13:23:51;12.48;;;6.55;;
66256;SDS011;53049;43.446;3.698;2023-10-09T13:26:20;10.77;;;6.57;;
66256;SDS011;53049;43.446;3.698;2023-10-09T13:28:53;16.60;;;7.95;;
66256;SDS011;53049;43.446;3.698;2023-10-09T13:31:20;14.07;;;8.38;;
66256;SDS011;53049;43.446;3.698;2023-10-09T13:33:50;13.85;;;7.47;;
66256;SDS011;53049;43.446;3.698;2023-10-09T13:36:20;12.50;;;7.43;;
66256;SDS011;53049;43.446;3.698;2023-10-09T13:39:03;12.95;;;7.30;;
66256;SDS011;53049;43.446;3.698;2023-10-09T13:41:50;15.15;;;7.40;;
66256;SDS011;53049;43.446;3.698;2023-10-09T13:44:26;11.70;;;7.45;;
66256;SDS011;53049;43.446;3.698;2023-10-09T13:46:52;13.13;;;7.90;;
66256;SDS011;53049;43.446;3.698;2023-10-09T13:49:26;12.98;;;7.43;;
66256;SDS011;53049;43.446;3.698;2023-10-09T13:51:58;11.05;;;6.85;;
66256;SDS011;53049;43.446;3.698;2023-10-09T13:54:26;13.70;;;7.63;;
66256;SDS011;53049;43.446;3.698;2023-10-09T13:56:58;10.45;;;7.07;;
66256;SDS011;53049;43.446;3.698;2023-10-09T13:59:24;12.10;;;6.97;;
66256;SDS011;53049;43.446;3.698;2023-10-09T14:01:54;12.07;;;7.68;;
66256;SDS011;53049;43.446;3.698;2023-10-09T14:04:20;11.27;;;7.25;;
66256;SDS011;53049;43.446;3.698;2023-10-09T14:06:48;11.35;;;7.75;;
66256;SDS011;53049;43.446;3.698;2023-10-09T14:09:16;16.10;;;7.97;;
66256;SDS011;53049;43.446;3.698;2023-10-09T14:14:41;15.02;;;7.85;;
66256;SDS011;53049;43.446;3.698;2023-10-09T14:17:14;16.45;;;8.63;;
66256;SDS011;53049;43.446;3.698;2023-10-09T14:19:54;11.02;;;8.13;;
66256;SDS011;53049;43.446;3.698;2023-10-09T14:23:12;12.07;;;8.88;;
66256;SDS011;53049;43.446;3.698;2023-10-09T14:25:46;15.98;;;9.35;;
66256;SDS011;53049;43.446;3.698;2023-10-09T14:28:14;14.77;;;8.70;;
66256;SDS011;53049;43.446;3.698;2023-10-09T14:30:43;15.40;;;9.05;;
66256;SDS011;53049;43.446;3.698;2023-10-09T14:33:12;24.42;;;9.57;;
66256;SDS011;53049;43.446;3.698;2023-10-09T14:35:41;11.45;;;9.02;;
66256;SDS011;53049;43.446;3.698;2023-10-09T14:38:09;13.15;;;9.80;;
66256;SDS011;53049;43.446;3.698;2023-10-09T14:40:44;12.93;;;8.27;;
66256;SDS011;53049;43.446;3.698;2023-10-09T14:43:10;12.70;;;8.63;;
66256;SDS011;53049;43.446;3.698;2023-10-09T14:45:47;12.25;;;8.48;;
66256;SDS011;53049;43.446;3.698;2023-10-09T14:48:18;15.18;;;9.32;;
66256;SDS011;53049;43.446;3.698;2023-10-09T14:50:51;14.02;;;9.00;;
66256;SDS011;53049;43.446;3.698;2023-10-09T14:53:18;11.15;;;8.20;;
66256;SDS011;53049;43.446;3.698;2023-10-09T14:55:46;14.57;;;9.57;;
66256;SDS011;53049;43.446;3.698;2023-10-09T14:58:22;12.80;;;8.90;;
66256;SDS011;53049;43.446;3.698;2023-10-09T15:00:53;12.75;;;9.13;;
66256;SDS011;53049;43.446;3.698;2023-10-09T15:03:19;11.68;;;8.50;;
66256;SDS011;53049;43.446;3.698;2023-10-09T15:05:45;12.07;;;8.85;;
66256;SDS011;53049;43.446;3.698;2023-10-09T15:08:11;13.10;;;8.55;;
66256;SDS011;53049;43.446;3.698;2023-10-09T15:10:50;10.48;;;8.43;;
66256;SDS011;53049;43.446;3.698;2023-10-09T15:13:24;15.00;;;8.65;;
66256;SDS011;53049;43.446;3.698;2023-10-09T15:15:55;14.02;;;8.93;;
66256;SDS011;53049;43.446;3.698;2023-10-09T15:18:22;12.45;;;8.15;;
66256;SDS011;53049;43.446;3.698;2023-10-09T15:20:48;11.35;;;9.38;;
66256;SDS011;53049;43.446;3.698;2023-10-09T15:23:14;11.73;;;7.53;;
66256;SDS011;53049;43.446;3.698;2023-10-09T15:25:39;14.80;;;8.55;;
66256;SDS011;53049;43.446;3.698;2023-10-09T15:28:10;11.45;;;8.98;;
66256;SDS011;53049;43.446;3.698;2023-10-09T15:30:36;11.65;;;9.13;;
66256;SDS011;53049;43.446;3.698;2023-10-09T15:33:06;10.52;;;9.10;;
66256;SDS011;53049;43.446;3.698;2023-10-09T15:35:36;12.68;;;9.07;;
66256;SDS011;53049;43.446;3.698;2023-10-09T15:38:02;11.52;;;8.93;;
66256;SDS011;53049;43.446;3.698;2023-10-09T15:40:32;13.90;;;9.52;;
66256;SDS011;53049;43.446;3.698;2023-10-09T17:31:57;17.15;;;13.70;;
66256;SDS011;53049;43.446;3.698;2023-10-09T17:34:23;20.48;;;14.20;;
66256;SDS011;53049;43.446;3.698;2023-10-09T17:36:51;18.63;;;13.75;;
66256;SDS011;53049;43.446;3.698;2023-10-09T17:39:17;16.55;;;13.65;;
66256;SDS011;53049;43.446;3.698;2023-10-09T18:05:09;16.48;;;14.30;;
66256;SDS011;53049;43.446;3.698;2023-10-09T18:07:35;18.02;;;14.15;;
66256;SDS011;53049;43.446;3.698;2023-10-09T18:10:03;16.65;;;13.75;;
66256;SDS011;53049;43.446;3.698;2023-10-09T18:30:44;19.48;;;14.95;;
66256;SDS011;53049;43.446;3.698;2023-10-09T18:33:14;21.33;;;16.30;;
66256;SDS011;53049;43.446;3.698;2023-10-09T18:35:40;17.50;;;14.60;;
66256;SDS011;53049;43.446;3.698;2023-10-09T18:48:27;21.17;;;15.25;;